Latest Weather Observations for Kununurra Airport

IDD60801

Issued at 7:05 pm CST Sunday 21 September 2014 (issued every 30 minutes, with the page automatically refreshed every 10 minutes)

About weather observations | Map of weather stations | Latest weather observations for NT | Other Formats
Station Details ID: 002056 Name: KUNUNURRA AERO Lat: -15.78 Lon: 128.71 Height: 44.0 m
Data from the previous 72 hours. | See also: Recent months at Kununurra Airport
Date/Time
CST
Temp
°C
App
Temp
°C
Dew
Point
Rel
Hum
%
Delta-T
°C
Wind Press
QNH
hPa
Press
MSL
hPa
Rain
since 9 am
mm
Dir
 
Spd
km/h
Gust
km/h
Spd
kts
Gust
kts
21/07:00pm 32.7 30.1 7.8 21 13.8 N 11 13 6 7 1010.7 - 0.0
21/06:30pm 34.1 32.2 8.9 21 14.3 NNW 9 11 5 6 1010.5 - 0.0
21/06:00pm 36.9 33.7 4.9 14 17.3 NW 11 15 6 8 1010.3 - 0.0
21/05:30pm 37.2 34.0 5.3 14 17.4 NNW 11 15 6 8 1010.2 - 0.0
21/05:00pm 37.6 35.7 6.8 15 17.2 NNW 6 13 3 7 1010.2 - 0.0
21/04:30pm 37.6 34.4 3.2 12 18.2 NNE 9 15 5 8 1010.1 1009.8 0.0
21/04:00pm 37.9 33.5 2.7 11 18.5 N 15 20 8 11 1010.3 - 0.0
21/03:30pm 37.8 34.2 2.9 11 18.4 ENE 11 20 6 11 1010.6 - 0.0
21/03:00pm 37.7 34.5 5.0 13 17.8 ESE 11 15 6 8 1010.9 - 0.0
21/02:30pm 37.3 34.2 5.5 14 17.4 SE 11 20 6 11 1011.3 - 0.0
21/02:00pm 36.9 34.4 6.7 15 16.8 ESE 9 15 5 8 1012.0 - 0.0
21/01:30pm 36.7 34.0 7.2 16 16.5 S 11 15 6 8 1012.7 1012.4 0.0
21/01:00pm 35.9 34.0 7.5 17 15.9 SSE 7 15 4 8 1013.0 - 0.0
21/12:30pm 35.2 32.7 8.0 19 15.3 ENE 11 17 6 9 1013.4 - 0.0
21/12:00pm 33.9 32.4 12.0 26 13.0 NNE 11 15 6 8 1013.9 - 0.0
21/11:30am 33.1 32.3 11.7 27 12.6 N 7 11 4 6 1014.3 - 0.0
21/11:00am 32.4 32.6 14.2 33 11.1 WSW 6 13 3 7 1014.8 - 0.0
21/10:30am 30.2 30.3 14.4 38 9.6 N 7 13 4 7 1015.3 1015.1 0.0
21/10:00am 29.1 30.1 16.4 46 7.9 N 6 9 3 5 1015.3 - 0.0
21/09:30am 27.8 29.2 16.3 49 7.1 N 4 9 2 5 1015.4 - 0.0
21/09:00am 25.7 26.9 16.8 58 5.5 S 6 11 3 6 1015.3 - 0.0
21/08:30am 23.3 24.0 16.0 63 4.4 S 7 11 4 6 1015.2 - 0.0
21/08:00am 21.8 22.5 16.2 70 3.4 SW 7 11 4 6 1015.0 - 0.0
21/07:30am 19.1 18.6 12.5 65 3.7 E 7 13 4 7 1014.8 1014.6 0.0
21/07:26am 18.8 17.2 11.5 62 4.0 E 11 15 6 8 1014.8 - 0.0
21/07:00am 17.0 17.3 13.3 79 2.1 SSE 4 7 2 4 1014.1 - 0.0
21/06:30am 17.6 18.1 12.8 73 2.7 S 2 7 1 4 1013.6 - 0.0
21/06:00am 18.6 18.6 13.5 72 2.9 SE 6 9 3 5 1013.2 - 0.0
21/05:58am 18.6 18.6 13.5 72 2.9 SE 6 11 3 6 1013.3 - 0.0
21/05:42am 19.0 18.5 12.0 64 3.9 E 6 9 3 5 1013.0 - 0.0
21/05:30am 18.4 17.7 12.1 66 3.5 SE 7 11 4 6 1013.0 - 0.0
21/05:10am 18.6 17.6 11.1 61 4.1 SE 7 9 4 5 1012.6 - 0.0
21/05:09am 18.8 17.8 11.1 61 4.2 SE 7 9 4 5 1012.7 - 0.0
21/05:00am 18.6 18.0 10.4 59 4.4 ESE 4 9 2 5 1012.7 - 0.0
21/04:30am 18.9 17.9 10.3 57 4.6 WNW 6 9 3 5 1012.3 1012.0 0.0
21/04:00am 19.3 17.5 9.5 53 5.2 NNW 9 17 5 9 1012.4 - 0.0
21/03:30am 21.0 18.4 9.2 46 6.3 N 13 19 7 10 1012.2 - 0.0
21/03:17am 20.0 17.5 9.7 51 5.5 N 13 20 7 11 1012.2 - 0.0
21/03:07am 18.7 17.5 8.0 49 5.5 SE 4 17 2 9 1012.1 - 0.0
21/03:00am 19.9 19.4 10.9 56 4.9 SSE 4 7 2 4 1011.9 - 0.0
21/02:30am 20.6 21.0 11.4 55 5.1 CALM 0 0 0 0 1012.0 - 0.0
21/02:00am 19.7 19.1 12.4 62 4.1 NNW 7 9 4 5 1012.3 - 0.0
21/01:30am 21.0 22.0 13.1 60 4.5 ENE 0 4 0 2 1012.5 1012.2 0.0
21/01:00am 22.6 22.9 15.0 62 4.5 SE 7 9 4 5 1012.6 - 0.0
21/12:37am 23.5 23.3 14.6 57 5.3 SE 9 11 5 6 1012.8 - 0.0
21/12:30am 23.2 22.7 14.8 59 5.0 ESE 11 11 6 6 1012.9 - 0.0
21/12:09am 23.8 23.7 13.3 51 6.1 SE 6 9 3 5 1012.9 - 0.0
21/12:00am 23.9 24.3 14.7 56 5.5 SSE 6 9 3 5 1012.9 - 0.0
 
Date/Time
CST
Temp
°C
App
Temp
°C
Dew
Point
Rel
Hum
%
Delta-T
°C
Wind Press
QNH
hPa
Press
MSL
hPa
Rain
since 9 am
mm
Dir
 
Spd
km/h
Gust
km/h
Spd
kts
Gust
kts
20/11:43pm 23.3 23.2 12.2 49 6.3 SE 4 9 2 5 1013.1 - 0.0
20/11:40pm 23.4 23.0 12.4 50 6.3 SE 6 9 3 5 1013.1 - 0.0
20/11:30pm 22.3 21.7 8.8 42 7.2 SSW 2 9 1 5 1013.2 - 0.0
20/11:00pm 22.5 23.2 12.1 51 5.9 CALM 0 4 0 2 1013.2 - 0.0
20/10:30pm 24.6 24.2 9.6 38 8.2 NE 2 6 1 3 1013.2 1012.9 0.0
20/10:11pm 25.4 24.5 9.1 35 8.9 NE 4 7 2 4 1013.3 - 0.0
20/10:02pm 24.9 22.4 8.3 34 8.9 NE 11 15 6 8 1013.2 - 0.0
20/10:00pm 24.7 22.2 8.2 35 8.8 NE 11 15 6 8 1013.2 - 0.0
20/09:30pm 25.5 25.6 10.0 37 8.6 CALM 0 0 0 0 1012.9 - 0.0
20/09:20pm 26.1 26.2 10.1 36 8.9 CALM 0 2 0 1 1012.9 - 0.0
20/09:00pm 27.1 25.2 6.9 27 10.7 N 6 7 3 4 1012.8 - 0.0
20/08:52pm 27.9 27.1 8.2 29 10.7 W 2 7 1 4 1012.7 - 0.0
20/08:30pm 27.4 25.9 8.5 30 10.3 NNW 6 9 3 5 1012.6 - 0.0
20/08:04pm 27.7 24.2 7.3 27 10.9 N 15 19 8 10 1012.2 - 0.0
20/08:00pm 28.0 24.9 7.3 27 11.1 N 13 17 7 9 1012.2 - 0.0
20/07:41pm 29.0 26.1 6.7 24 11.9 N 11 13 6 7 1011.9 - 0.0
20/07:30pm 30.1 26.8 6.3 22 12.7 N 13 15 7 8 1011.7 1011.4 0.0
20/07:00pm 31.9 28.1 5.6 19 14.0 N 15 17 8 9 1011.3 - 0.0
20/06:30pm 33.8 30.4 5.8 17 15.1 N 13 15 7 8 1010.9 - 0.0
20/06:00pm 36.1 32.9 3.0 12 17.3 N 9 13 5 7 1010.6 - 0.0
20/05:30pm 36.8 33.6 3.2 12 17.7 N 9 13 5 7 1010.4 - 0.0
20/05:00pm 37.4 33.3 2.3 11 18.3 N 13 20 7 11 1010.2 - 0.0
20/04:30pm 37.6 32.3 1.9 11 18.5 N 19 24 10 13 1010.1 1009.8 0.0
20/04:00pm 37.6 33.7 3.6 12 18.1 NW 13 24 7 13 1010.2 - 0.0
20/03:30pm 36.8 33.5 4.3 13 17.4 N 11 20 6 11 1010.6 - 0.0
20/03:00pm 37.9 32.7 3.5 12 18.3 N 20 30 11 16 1010.9 - 0.0
20/02:30pm 36.8 32.6 3.9 13 17.5 NE 15 26 8 14 1011.5 - 0.0
20/02:00pm 36.7 33.1 4.8 14 17.2 WNW 13 22 7 12 1011.9 - 0.0
20/01:30pm 36.7 32.8 5.2 14 17.1 NW 15 24 8 13 1012.4 1012.1 0.0
20/01:00pm 35.3 31.1 5.9 16 16.0 N 17 28 9 15 1012.9 - 0.0
20/12:30pm 36.2 30.6 5.4 15 16.7 N 24 32 13 17 1013.4 - 0.0
20/12:00pm 34.5 32.1 9.9 22 14.2 N 13 17 7 9 1013.9 - 0.0
20/11:30am 33.8 30.1 10.3 23 13.6 N 20 28 11 15 1014.6 - 0.0
20/11:05am 33.6 28.5 9.1 22 13.9 NNW 26 35 14 19 1014.8 - 0.0
20/11:00am 33.1 27.6 9.1 22 13.6 NNW 28 35 15 19 1014.9 - 0.0
20/10:49am 32.1 30.1 14.0 33 11.0 N 17 24 9 13 1015.0 - 0.0
20/10:30am 30.5 29.5 15.6 40 9.2 N 15 24 8 13 1015.1 1014.9 0.0
20/10:00am 29.0 29.2 15.7 44 8.2 NNW 9 11 5 6 1015.6 - 0.0
20/09:30am 27.6 29.7 18.9 59 5.6 NNE 6 11 3 6 1015.7 - 0.0
20/09:00am 25.6 28.6 19.2 67 4.1 N 2 7 1 4 1015.6 - 0.0
20/08:30am 23.8 24.6 17.4 67 4.0 S 9 11 5 6 1015.3 - 0.0
20/08:00am 21.8 22.0 15.8 68 3.6 SW 9 11 5 6 1015.1 - 0.0
20/07:30am 20.4 20.4 14.2 67 3.6 SSE 7 9 4 5 1014.7 1014.5 0.0
20/07:15am 19.2 18.3 10.7 58 4.6 E 6 7 3 4 1014.3 - 0.0
20/07:00am 19.7 20.1 12.4 62 4.1 S 2 9 1 5 1014.4 - 0.0
20/06:30am 18.2 17.6 11.8 66 3.5 SSW 6 11 3 6 1014.0 - 0.0
20/06:00am 19.2 18.3 11.4 60 4.3 N 7 11 4 6 1013.5 - 0.0
20/05:30am 19.9 17.1 10.0 53 5.3 N 15 20 8 11 1013.0 - 0.0
20/05:16am 20.0 17.3 10.4 54 5.2 NNE 15 19 8 10 1012.9 - 0.0
20/05:15am 20.3 17.5 10.1 52 5.5 NNE 15 19 8 10 1012.9 - 0.0
20/05:00am 18.7 14.4 10.8 60 4.3 NNE 24 28 13 15 1012.8 - 0.0
20/04:30am 18.8 19.3 14.9 78 2.3 E 6 7 3 4 1012.1 1011.8 0.0
20/04:18am 18.8 19.0 14.7 77 2.4 E 7 7 4 4 1012.1 - 0.0
20/04:00am 19.8 21.2 14.3 70 3.2 CALM 0 0 0 0 1012.2 - 0.0
20/03:50am 19.6 20.4 12.7 64 3.9 CALM 0 0 0 0 1012.2 - 0.0
20/03:30am 19.2 21.1 15.8 81 2.0 CALM 0 0 0 0 1012.3 - 0.0
20/03:00am 20.0 20.5 11.7 59 4.6 CALM 0 0 0 0 1012.4 - 0.0
20/02:32am 20.9 22.0 13.6 63 4.2 CALM 0 0 0 0 1012.6 - 0.0
20/02:30am 20.7 21.8 13.6 64 4.1 CALM 0 0 0 0 1012.6 - 0.0
20/02:26am 20.7 21.6 13.0 61 4.4 CALM 0 0 0 0 1012.7 - 0.0
20/02:00am 20.4 21.0 12.0 58 4.7 CALM 0 0 0 0 1012.9 - 0.0
20/01:30am 20.2 20.6 11.3 56 4.9 CALM 0 0 0 0 1013.1 1012.8 0.0
20/01:00am 21.3 21.4 11.6 54 5.4 SSE 2 7 1 4 1013.4 - 0.0
20/12:30am 21.9 21.4 11.9 53 5.6 ESE 6 9 3 5 1013.6 - 0.0
20/12:00am 22.2 22.6 11.2 49 6.1 CALM 0 0 0 0 1013.6 - 0.0
 
Date/Time
CST
Temp
°C
App
Temp
°C
Dew
Point
Rel
Hum
%
Delta-T
°C
Wind Press
QNH
hPa
Press
MSL
hPa
Rain
since 9 am
mm
Dir
 
Spd
km/h
Gust
km/h
Spd
kts
Gust
kts
19/11:30pm 23.0 22.6 12.3 51 6.1 N 6 7 3 4 1013.7 - 0.0
19/11:00pm 23.4 23.7 10.8 45 7.0 CALM 0 0 0 0 1013.6 - 0.0
19/10:30pm 25.7 26.1 11.2 40 8.2 CALM 0 6 0 3 1013.7 1013.5 0.0
19/10:23pm 25.3 24.6 11.3 41 7.9 NE 6 9 3 5 1013.7 - 0.0
19/10:22pm 25.4 24.6 11.2 41 8.0 NE 6 9 3 5 1013.7 - 0.0
19/10:00pm 25.5 26.3 12.5 44 7.5 CALM 0 0 0 0 1013.6 - 0.0
19/09:47pm 26.1 26.5 11.1 39 8.5 CALM 0 6 0 3 1013.7 - 0.0
19/09:30pm 25.8 24.6 10.4 38 8.6 NNE 7 9 4 5 1013.6 - 0.0
19/09:17pm 27.2 27.5 11.0 36 9.2 CALM 0 0 0 0 1013.5 - 0.0
19/09:00pm 26.5 25.3 10.2 36 9.1 NW 7 9 4 5 1013.3 - 0.0
19/08:30pm 26.4 25.4 12.2 41 8.2 NNW 9 13 5 7 1013.1 - 0.0
19/08:00pm 28.5 30.2 15.3 44 8.1 CALM 0 0 0 0 1012.6 - 0.0
19/07:30pm 29.2 30.1 13.0 37 9.6 CALM 0 0 0 0 1012.3 1012.0 0.0
19/07:20pm 30.0 30.9 13.0 35 10.1 CALM 0 0 0 0 1012.2 - 0.0
19/07:00pm 31.4 32.3 12.8 32 11.1 CALM 0 6 0 3 1011.9 - 0.0
19/06:30pm 33.8 32.1 8.3 20 14.3 WNW 7 9 4 5 1011.6 - 0.0
19/06:00pm 36.1 34.5 8.2 18 15.8 W 6 9 3 5 1011.3 - 0.0
19/05:30pm 36.3 33.9 7.1 16 16.3 W 9 13 5 7 1011.1 - 0.0
19/05:00pm 36.0 33.7 7.4 17 16.0 W 9 15 5 8 1011.0 - 0.0
19/04:30pm 37.0 34.6 7.2 16 16.7 SSW 9 15 5 8 1010.9 1010.6 0.0
19/04:00pm 36.7 34.4 7.6 17 16.4 S 9 13 5 7 1011.2 - 0.0
19/03:30pm 36.2 34.5 8.4 18 15.8 NNE 7 15 4 8 1011.4 - 0.0
19/03:00pm 36.4 33.8 7.9 17 16.1 NNW 11 17 6 9 1011.7 - 0.0
19/02:30pm 36.2 33.7 8.4 18 15.8 N 11 19 6 10 1012.1 - 0.0
19/02:00pm 36.2 34.6 10.2 20 15.2 W 9 24 5 13 1012.7 - 0.0
19/01:30pm 35.3 33.8 11.8 24 14.0 ENE 11 19 6 10 1013.5 1013.3 0.0
19/01:00pm 34.7 33.0 12.6 26 13.3 N 13 24 7 13 1014.2 - 0.0
19/12:30pm 34.8 32.3 11.2 24 13.9 N 15 24 8 13 1014.8 - 0.0
19/12:00pm 33.6 32.6 13.5 29 12.2 N 11 19 6 10 1015.2 - 0.0
19/11:30am 32.6 32.0 14.5 33 11.1 N 11 28 6 15 1015.7 - 0.0
19/11:00am 30.7 30.4 16.5 42 8.9 NNE 13 19 7 10 1016.1 - 0.0
19/10:30am 30.4 30.9 17.5 46 8.2 NNE 11 15 6 8 1016.6 1016.4 0.0
19/10:00am 28.6 29.5 17.5 51 7.0 NNE 9 15 5 8 1016.7 - 0.0
19/09:30am 27.1 27.7 16.8 53 6.4 N 9 11 5 6 1016.8 - 0.0
19/09:00am 26.2 27.3 17.2 57 5.6 NE 7 11 4 6 1016.7 - 0.0
19/08:30am 24.8 26.2 17.4 63 4.6 NE 6 11 3 6 1016.4 - 0.0
19/08:00am 22.6 23.9 17.1 71 3.4 S 6 7 3 4 1016.1 - 0.0
19/07:30am 21.2 20.7 16.0 72 3.1 SW 13 19 7 10 1015.7 1015.5 0.0
19/07:18am 19.4 19.7 15.9 80 2.1 WSW 9 13 5 7 1015.9 - 0.0
19/07:00am 19.5 20.1 15.8 79 2.2 SW 7 13 4 7 1015.8 - 0.0
19/06:30am 20.8 21.0 14.8 68 3.5 NE 7 13 4 7 1015.1 - 0.0
19/06:00am 18.1 15.5 13.3 73 2.7 ENE 19 20 10 11 1014.4 - 0.0
19/05:30am 17.9 18.1 14.1 78 2.2 NNE 6 9 3 5 1013.4 - 0.0
19/05:29am 18.1 18.1 14.3 78 2.2 NNE 7 9 4 5 1013.4 - 0.0
19/05:00am 17.7 17.8 14.4 81 1.9 NNW 7 9 4 5 1013.2 - 0.0
19/04:30am 18.8 19.7 14.1 74 2.7 WNW 2 6 1 3 1013.0 1012.7 0.0
19/04:00am 18.4 19.6 13.9 75 2.6 CALM 0 0 0 0 1012.6 - 0.0
19/03:30am 18.5 17.7 14.0 75 2.6 N 11 13 6 7 1012.9 - 0.0
19/03:03am 19.0 18.7 13.2 69 3.3 N 7 9 4 5 1013.1 - 0.0
19/03:00am 19.2 18.7 12.8 66 3.6 NNW 7 9 4 5 1013.1 - 0.0
19/02:43am 20.2 21.4 13.8 66 3.7 CALM 0 0 0 0 1013.2 - 0.0
19/02:30am 20.3 21.7 14.5 69 3.4 CALM 0 0 0 0 1013.3 - 0.0
19/02:00am 19.9 20.4 11.6 58 4.6 CALM 0 0 0 0 1013.2 - 0.0
19/01:30am 20.3 21.2 12.9 62 4.2 CALM 0 0 0 0 1013.4 1013.2 0.0
19/01:25am 20.9 21.8 13.0 60 4.5 CALM 0 0 0 0 1013.4 - 0.0
19/01:19am 21.1 21.3 10.5 50 5.8 CALM 0 0 0 0 1013.5 - 0.0
19/01:00am 21.6 22.8 13.8 61 4.5 CALM 0 0 0 0 1013.8 - 0.0
19/12:30am 21.8 22.7 14.1 61 4.5 W 2 6 1 3 1014.1 - 0.0
19/12:00am 23.3 24.2 14.1 56 5.4 ENE 2 7 1 4 1014.3 - 0.0
 
Date/Time
CST
Temp
°C
App
Temp
°C
Dew
Point
Rel
Hum
%
Delta-T
°C
Wind Press
QNH
hPa
Press
MSL
hPa
Rain
since 9 am
mm
Dir
 
Spd
km/h
Gust
km/h
Spd
kts
Gust
kts
18/11:53pm 23.6 23.8 14.1 55 5.6 ENE 6 11 3 6 1014.3 - 0.0
18/11:33pm 22.7 21.8 12.7 53 5.7 E 9 20 5 11 1014.5 - 0.0
18/11:30pm 22.9 22.8 13.4 55 5.5 ESE 6 11 3 6 1014.4 - 0.0
18/11:13pm 23.3 23.8 15.1 60 4.9 ESE 6 7 3 4 1014.5 - 0.0
18/11:09pm 23.4 23.8 15.2 60 4.9 ESE 7 7 4 4 1014.5 - 0.0
18/11:00pm 24.4 24.2 13.6 51 6.3 SE 7 7 4 4 1014.6 - 0.0
18/10:34pm 24.0 24.2 13.1 50 6.3 N 4 6 2 3 1014.6 - 0.0
18/10:30pm 24.2 24.4 11.9 46 7.0 N 2 6 1 3 1014.6 1014.4 0.0
18/10:29pm 24.2 24.6 11.4 44 7.2 CALM 0 6 0 3 1014.6 - 0.0
18/10:00pm 25.2 26.7 14.7 52 6.3 CALM 0 0 0 0 1014.6 - 0.0
18/09:48pm 25.8 26.6 13.6 47 7.2 N 2 6 1 3 1014.5 - 0.0
18/09:38pm 25.5 25.7 13.0 46 7.3 N 4 6 2 3 1014.4 - 0.0
18/09:30pm 25.6 25.4 13.1 46 7.3 N 6 9 3 5 1014.4 - 0.0
18/09:00pm 25.4 24.4 13.5 47 7.0 N 11 13 6 7 1014.3 - 0.0

Other Formats:

Comma delimited format used in spreadsheet applications
http://www.bom.gov.au/fwo/IDD60801/IDD60801.94216.axf

JavaScript Object Notation format (JSON) in row-major order
http://www.bom.gov.au/fwo/IDD60801/IDD60801.94216.json